sensor_id;sensor_type;location;lat;lon;timestamp;P1;durP1;ratioP1;P2;durP2;ratioP2
24559;SDS011;12727;49.934;8.656;2023-02-17T00:00:10;15.80;;;9.50;;
24559;SDS011;12727;49.934;8.656;2023-02-17T00:02:37;16.05;;;10.13;;
24559;SDS011;12727;49.934;8.656;2023-02-17T00:05:04;16.25;;;10.13;;
24559;SDS011;12727;49.934;8.656;2023-02-17T00:07:31;14.20;;;9.85;;
24559;SDS011;12727;49.934;8.656;2023-02-17T00:09:57;13.80;;;9.38;;
24559;SDS011;12727;49.934;8.656;2023-02-17T00:12:23;14.70;;;10.13;;
24559;SDS011;12727;49.934;8.656;2023-02-17T00:14:49;15.15;;;9.80;;
24559;SDS011;12727;49.934;8.656;2023-02-17T00:17:15;13.48;;;9.80;;
24559;SDS011;12727;49.934;8.656;2023-02-17T00:19:40;14.88;;;9.80;;
24559;SDS011;12727;49.934;8.656;2023-02-17T00:22:06;14.63;;;9.68;;
24559;SDS011;12727;49.934;8.656;2023-02-17T00:24:32;15.20;;;9.85;;
24559;SDS011;12727;49.934;8.656;2023-02-17T00:27:01;14.20;;;9.20;;
24559;SDS011;12727;49.934;8.656;2023-02-17T00:29:27;14.40;;;9.88;;
24559;SDS011;12727;49.934;8.656;2023-02-17T00:31:53;12.85;;;9.57;;
24559;SDS011;12727;49.934;8.656;2023-02-17T00:34:19;14.88;;;9.90;;
24559;SDS011;12727;49.934;8.656;2023-02-17T00:36:45;14.15;;;9.55;;
24559;SDS011;12727;49.934;8.656;2023-02-17T00:39:12;15.00;;;8.55;;
24559;SDS011;12727;49.934;8.656;2023-02-17T00:41:39;15.75;;;9.57;;
24559;SDS011;12727;49.934;8.656;2023-02-17T00:44:05;17.65;;;10.02;;
24559;SDS011;12727;49.934;8.656;2023-02-17T00:46:31;13.63;;;10.00;;
24559;SDS011;12727;49.934;8.656;2023-02-17T00:48:57;14.30;;;9.10;;
24559;SDS011;12727;49.934;8.656;2023-02-17T00:51:23;16.20;;;10.18;;
24559;SDS011;12727;49.934;8.656;2023-02-17T00:53:50;17.70;;;10.20;;
24559;SDS011;12727;49.934;8.656;2023-02-17T00:56:16;14.15;;;9.48;;
24559;SDS011;12727;49.934;8.656;2023-02-17T00:58:42;14.55;;;9.75;;
24559;SDS011;12727;49.934;8.656;2023-02-17T01:01:08;15.50;;;9.88;;
24559;SDS011;12727;49.934;8.656;2023-02-17T01:03:34;13.10;;;9.73;;
24559;SDS011;12727;49.934;8.656;2023-02-17T01:06:03;13.82;;;9.98;;
24559;SDS011;12727;49.934;8.656;2023-02-17T01:08:31;14.43;;;9.63;;
24559;SDS011;12727;49.934;8.656;2023-02-17T01:10:59;14.13;;;9.38;;
24559;SDS011;12727;49.934;8.656;2023-02-17T01:13:25;16.50;;;10.10;;
24559;SDS011;12727;49.934;8.656;2023-02-17T01:15:51;15.13;;;10.35;;
24559;SDS011;12727;49.934;8.656;2023-02-17T01:18:18;15.15;;;9.43;;
24559;SDS011;12727;49.934;8.656;2023-02-17T01:20:46;17.10;;;9.70;;
24559;SDS011;12727;49.934;8.656;2023-02-17T01:23:11;14.27;;;9.82;;
24559;SDS011;12727;49.934;8.656;2023-02-17T01:25:38;18.50;;;9.88;;
24559;SDS011;12727;49.934;8.656;2023-02-17T01:28:05;14.32;;;9.65;;
24559;SDS011;12727;49.934;8.656;2023-02-17T01:30:32;18.48;;;10.15;;
24559;SDS011;12727;49.934;8.656;2023-02-17T01:32:58;16.05;;;9.77;;
24559;SDS011;12727;49.934;8.656;2023-02-17T01:35:24;14.35;;;10.02;;
24559;SDS011;12727;49.934;8.656;2023-02-17T01:37:50;16.95;;;9.88;;
24559;SDS011;12727;49.934;8.656;2023-02-17T01:40:15;14.98;;;9.57;;
24559;SDS011;12727;49.934;8.656;2023-02-17T01:42:41;17.20;;;9.90;;
24559;SDS011;12727;49.934;8.656;2023-02-17T01:45:27;17.02;;;9.63;;
24559;SDS011;12727;49.934;8.656;2023-02-17T01:47:59;13.82;;;9.60;;
24559;SDS011;12727;49.934;8.656;2023-02-17T01:50:47;18.30;;;10.15;;
24559;SDS011;12727;49.934;8.656;2023-02-17T01:53:24;15.05;;;9.65;;
24559;SDS011;12727;49.934;8.656;2023-02-17T01:56:03;17.07;;;9.43;;
24559;SDS011;12727;49.934;8.656;2023-02-17T01:58:31;16.38;;;9.88;;
24559;SDS011;12727;49.934;8.656;2023-02-17T02:00:58;17.90;;;9.07;;
24559;SDS011;12727;49.934;8.656;2023-02-17T02:03:28;14.32;;;9.27;;
24559;SDS011;12727;49.934;8.656;2023-02-17T02:05:56;14.70;;;9.68;;
24559;SDS011;12727;49.934;8.656;2023-02-17T02:08:23;16.40;;;9.52;;
24559;SDS011;12727;49.934;8.656;2023-02-17T02:10:53;13.90;;;8.88;;
24559;SDS011;12727;49.934;8.656;2023-02-17T02:13:18;17.05;;;10.00;;
24559;SDS011;12727;49.934;8.656;2023-02-17T02:15:51;18.40;;;9.25;;
24559;SDS011;12727;49.934;8.656;2023-02-17T02:18:38;17.20;;;8.85;;
24559;SDS011;12727;49.934;8.656;2023-02-17T02:32:38;14.27;;;9.02;;
24559;SDS011;12727;49.934;8.656;2023-02-17T02:35:14;18.77;;;9.77;;
24559;SDS011;12727;49.934;8.656;2023-02-17T02:37:42;16.00;;;9.73;;
24559;SDS011;12727;49.934;8.656;2023-02-17T02:40:23;17.00;;;9.43;;
24559;SDS011;12727;49.934;8.656;2023-02-17T02:42:54;16.73;;;9.10;;
24559;SDS011;12727;49.934;8.656;2023-02-17T02:45:20;15.18;;;8.77;;
24559;SDS011;12727;49.934;8.656;2023-02-17T02:47:53;14.98;;;8.70;;
24559;SDS011;12727;49.934;8.656;2023-02-17T02:53:11;20.15;;;9.35;;
24559;SDS011;12727;49.934;8.656;2023-02-17T02:58:37;13.60;;;8.63;;
24559;SDS011;12727;49.934;8.656;2023-02-17T03:04:22;14.18;;;8.52;;
24559;SDS011;12727;49.934;8.656;2023-02-17T03:07:17;14.48;;;8.48;;
24559;SDS011;12727;49.934;8.656;2023-02-17T03:10:05;15.85;;;9.18;;
24559;SDS011;12727;49.934;8.656;2023-02-17T03:12:31;17.42;;;8.73;;
24559;SDS011;12727;49.934;8.656;2023-02-17T03:15:02;16.20;;;8.63;;
24559;SDS011;12727;49.934;8.656;2023-02-17T03:17:40;12.27;;;7.45;;
24559;SDS011;12727;49.934;8.656;2023-02-17T03:20:05;14.20;;;8.95;;
24559;SDS011;12727;49.934;8.656;2023-02-17T03:22:34;15.02;;;8.40;;
24559;SDS011;12727;49.934;8.656;2023-02-17T03:25:02;15.52;;;7.85;;
24559;SDS011;12727;49.934;8.656;2023-02-17T03:27:28;10.90;;;6.65;;
24559;SDS011;12727;49.934;8.656;2023-02-17T03:29:54;10.70;;;6.22;;
24559;SDS011;12727;49.934;8.656;2023-02-17T03:32:19;15.57;;;8.68;;
24559;SDS011;12727;49.934;8.656;2023-02-17T03:34:45;13.20;;;8.45;;
24559;SDS011;12727;49.934;8.656;2023-02-17T03:37:11;13.05;;;8.35;;
24559;SDS011;12727;49.934;8.656;2023-02-17T03:39:37;13.95;;;8.48;;
24559;SDS011;12727;49.934;8.656;2023-02-17T03:42:02;14.18;;;8.13;;
24559;SDS011;12727;49.934;8.656;2023-02-17T03:44:28;17.00;;;9.32;;
24559;SDS011;12727;49.934;8.656;2023-02-17T03:46:54;14.13;;;7.93;;
24559;SDS011;12727;49.934;8.656;2023-02-17T03:49:19;21.58;;;8.57;;
24559;SDS011;12727;49.934;8.656;2023-02-17T03:51:45;16.25;;;8.60;;
24559;SDS011;12727;49.934;8.656;2023-02-17T03:54:11;13.38;;;8.32;;
24559;SDS011;12727;49.934;8.656;2023-02-17T03:56:36;12.68;;;7.70;;
24559;SDS011;12727;49.934;8.656;2023-02-17T03:59:02;15.90;;;9.07;;
24559;SDS011;12727;49.934;8.656;2023-02-17T04:01:28;11.18;;;7.43;;
24559;SDS011;12727;49.934;8.656;2023-02-17T04:03:53;14.20;;;8.10;;
24559;SDS011;12727;49.934;8.656;2023-02-17T04:06:19;14.38;;;8.32;;
24559;SDS011;12727;49.934;8.656;2023-02-17T04:08:45;13.85;;;7.45;;
24559;SDS011;12727;49.934;8.656;2023-02-17T04:11:10;12.80;;;7.78;;
24559;SDS011;12727;49.934;8.656;2023-02-17T04:13:36;12.75;;;8.02;;
24559;SDS011;12727;49.934;8.656;2023-02-17T04:16:02;14.25;;;8.30;;
24559;SDS011;12727;49.934;8.656;2023-02-17T04:18:29;14.32;;;8.68;;
24559;SDS011;12727;49.934;8.656;2023-02-17T04:20:55;13.63;;;8.38;;
24559;SDS011;12727;49.934;8.656;2023-02-17T04:23:21;14.45;;;8.43;;
24559;SDS011;12727;49.934;8.656;2023-02-17T04:25:47;11.35;;;7.50;;
24559;SDS011;12727;49.934;8.656;2023-02-17T04:28:14;12.32;;;8.15;;
24559;SDS011;12727;49.934;8.656;2023-02-17T04:30:46;13.05;;;8.38;;
24559;SDS011;12727;49.934;8.656;2023-02-17T04:33:17;12.40;;;7.40;;
24559;SDS011;12727;49.934;8.656;2023-02-17T04:35:42;14.57;;;7.63;;
24559;SDS011;12727;49.934;8.656;2023-02-17T04:38:08;12.02;;;7.60;;
24559;SDS011;12727;49.934;8.656;2023-02-17T04:40:35;10.85;;;7.22;;
24559;SDS011;12727;49.934;8.656;2023-02-17T04:43:02;6.90;;;4.78;;
24559;SDS011;12727;49.934;8.656;2023-02-17T04:45:27;11.57;;;6.65;;
24559;SDS011;12727;49.934;8.656;2023-02-17T04:47:53;9.55;;;6.72;;
24559;SDS011;12727;49.934;8.656;2023-02-17T04:50:19;11.13;;;7.13;;
24559;SDS011;12727;49.934;8.656;2023-02-17T04:52:44;10.85;;;6.32;;
24559;SDS011;12727;49.934;8.656;2023-02-17T04:55:10;9.32;;;6.47;;
24559;SDS011;12727;49.934;8.656;2023-02-17T04:57:36;10.15;;;5.90;;
24559;SDS011;12727;49.934;8.656;2023-02-17T05:00:03;10.68;;;7.03;;
24559;SDS011;12727;49.934;8.656;2023-02-17T05:02:29;8.25;;;5.28;;
24559;SDS011;12727;49.934;8.656;2023-02-17T05:04:55;11.60;;;6.53;;
24559;SDS011;12727;49.934;8.656;2023-02-17T05:07:21;9.88;;;6.43;;
24559;SDS011;12727;49.934;8.656;2023-02-17T05:09:46;10.55;;;6.15;;
24559;SDS011;12727;49.934;8.656;2023-02-17T05:12:12;9.43;;;5.72;;
24559;SDS011;12727;49.934;8.656;2023-02-17T05:14:38;10.00;;;5.63;;
24559;SDS011;12727;49.934;8.656;2023-02-17T05:17:03;9.95;;;6.07;;
24559;SDS011;12727;49.934;8.656;2023-02-17T05:19:29;7.78;;;5.38;;
24559;SDS011;12727;49.934;8.656;2023-02-17T05:21:55;8.25;;;5.57;;
24559;SDS011;12727;49.934;8.656;2023-02-17T05:24:20;8.65;;;6.18;;
24559;SDS011;12727;49.934;8.656;2023-02-17T05:26:46;9.63;;;5.43;;
24559;SDS011;12727;49.934;8.656;2023-02-17T05:29:11;8.75;;;5.53;;
24559;SDS011;12727;49.934;8.656;2023-02-17T05:31:37;8.30;;;5.70;;
24559;SDS011;12727;49.934;8.656;2023-02-17T05:34:02;10.23;;;5.40;;
24559;SDS011;12727;49.934;8.656;2023-02-17T05:36:28;9.90;;;6.07;;
24559;SDS011;12727;49.934;8.656;2023-02-17T05:38:54;8.43;;;5.85;;
24559;SDS011;12727;49.934;8.656;2023-02-17T05:41:19;8.45;;;5.35;;
24559;SDS011;12727;49.934;8.656;2023-02-17T05:43:45;8.70;;;5.25;;
24559;SDS011;12727;49.934;8.656;2023-02-17T05:46:12;7.22;;;5.30;;
24559;SDS011;12727;49.934;8.656;2023-02-17T05:48:37;8.20;;;5.05;;
24559;SDS011;12727;49.934;8.656;2023-02-17T05:51:03;8.65;;;5.13;;
24559;SDS011;12727;49.934;8.656;2023-02-17T05:53:29;7.28;;;5.50;;
24559;SDS011;12727;49.934;8.656;2023-02-17T05:55:55;6.72;;;4.70;;
24559;SDS011;12727;49.934;8.656;2023-02-17T05:58:23;5.13;;;4.45;;
24559;SDS011;12727;49.934;8.656;2023-02-17T06:00:49;7.28;;;4.63;;
24559;SDS011;12727;49.934;8.656;2023-02-17T06:03:15;6.68;;;3.67;;
24559;SDS011;12727;49.934;8.656;2023-02-17T06:05:41;9.45;;;5.28;;
24559;SDS011;12727;49.934;8.656;2023-02-17T06:08:08;7.35;;;3.38;;
24559;SDS011;12727;49.934;8.656;2023-02-17T06:10:34;6.65;;;4.63;;
24559;SDS011;12727;49.934;8.656;2023-02-17T06:12:59;7.85;;;4.75;;
24559;SDS011;12727;49.934;8.656;2023-02-17T06:15:25;7.43;;;5.22;;
24559;SDS011;12727;49.934;8.656;2023-02-17T06:17:50;5.80;;;4.47;;
24559;SDS011;12727;49.934;8.656;2023-02-17T06:20:16;7.18;;;5.25;;
24559;SDS011;12727;49.934;8.656;2023-02-17T06:22:41;7.78;;;4.90;;
24559;SDS011;12727;49.934;8.656;2023-02-17T06:25:07;6.60;;;4.68;;
24559;SDS011;12727;49.934;8.656;2023-02-17T06:27:33;5.82;;;4.13;;
24559;SDS011;12727;49.934;8.656;2023-02-17T06:30:03;6.18;;;3.75;;
24559;SDS011;12727;49.934;8.656;2023-02-17T06:32:29;5.43;;;3.80;;
24559;SDS011;12727;49.934;8.656;2023-02-17T06:34:55;5.50;;;4.03;;
24559;SDS011;12727;49.934;8.656;2023-02-17T06:37:20;5.95;;;3.33;;
24559;SDS011;12727;49.934;8.656;2023-02-17T06:39:49;4.72;;;3.63;;
24559;SDS011;12727;49.934;8.656;2023-02-17T06:42:15;5.03;;;4.10;;
24559;SDS011;12727;49.934;8.656;2023-02-17T06:44:43;5.63;;;4.40;;
24559;SDS011;12727;49.934;8.656;2023-02-17T06:47:09;5.43;;;3.25;;
24559;SDS011;12727;49.934;8.656;2023-02-17T06:49:35;6.03;;;4.68;;
24559;SDS011;12727;49.934;8.656;2023-02-17T06:52:11;4.88;;;3.70;;
24559;SDS011;12727;49.934;8.656;2023-02-17T06:54:43;5.90;;;4.07;;
24559;SDS011;12727;49.934;8.656;2023-02-17T06:57:11;3.60;;;2.13;;
24559;SDS011;12727;49.934;8.656;2023-02-17T06:59:37;7.05;;;3.88;;
24559;SDS011;12727;49.934;8.656;2023-02-17T07:02:03;4.65;;;2.65;;
24559;SDS011;12727;49.934;8.656;2023-02-17T07:04:34;5.30;;;4.00;;
24559;SDS011;12727;49.934;8.656;2023-02-17T07:07:00;4.18;;;3.08;;
24559;SDS011;12727;49.934;8.656;2023-02-17T07:09:26;6.07;;;3.78;;
24559;SDS011;12727;49.934;8.656;2023-02-17T07:11:51;4.68;;;3.22;;
24559;SDS011;12727;49.934;8.656;2023-02-17T07:14:17;4.53;;;4.03;;
24559;SDS011;12727;49.934;8.656;2023-02-17T07:16:42;5.53;;;3.90;;
24559;SDS011;12727;49.934;8.656;2023-02-17T07:19:08;4.82;;;3.90;;
24559;SDS011;12727;49.934;8.656;2023-02-17T07:21:33;5.55;;;3.90;;
24559;SDS011;12727;49.934;8.656;2023-02-17T07:23:59;3.85;;;3.30;;
24559;SDS011;12727;49.934;8.656;2023-02-17T07:26:25;4.82;;;3.80;;
24559;SDS011;12727;49.934;8.656;2023-02-17T07:28:50;4.95;;;3.90;;
24559;SDS011;12727;49.934;8.656;2023-02-17T07:31:16;4.97;;;3.90;;
24559;SDS011;12727;49.934;8.656;2023-02-17T07:33:42;8.68;;;4.53;;
24559;SDS011;12727;49.934;8.656;2023-02-17T07:36:10;5.18;;;3.63;;
24559;SDS011;12727;49.934;8.656;2023-02-17T07:38:37;6.63;;;4.40;;
24559;SDS011;12727;49.934;8.656;2023-02-17T07:41:07;5.53;;;3.40;;
24559;SDS011;12727;49.934;8.656;2023-02-17T07:43:35;6.10;;;3.88;;
24559;SDS011;12727;49.934;8.656;2023-02-17T07:46:01;8.13;;;3.47;;
24559;SDS011;12727;49.934;8.656;2023-02-17T07:48:27;4.90;;;3.42;;
24559;SDS011;12727;49.934;8.656;2023-02-17T07:50:53;4.50;;;2.83;;
24559;SDS011;12727;49.934;8.656;2023-02-17T07:53:19;4.93;;;3.00;;
24559;SDS011;12727;49.934;8.656;2023-02-17T07:55:48;5.22;;;3.00;;
24559;SDS011;12727;49.934;8.656;2023-02-17T07:58:16;4.43;;;3.55;;
24559;SDS011;12727;49.934;8.656;2023-02-17T08:00:42;5.22;;;3.67;;
24559;SDS011;12727;49.934;8.656;2023-02-17T08:03:07;5.93;;;3.67;;
24559;SDS011;12727;49.934;8.656;2023-02-17T08:05:36;4.25;;;3.05;;
24559;SDS011;12727;49.934;8.656;2023-02-17T08:08:07;3.92;;;2.85;;
24559;SDS011;12727;49.934;8.656;2023-02-17T08:10:51;3.05;;;2.53;;
24559;SDS011;12727;49.934;8.656;2023-02-17T08:13:36;3.22;;;2.70;;
24559;SDS011;12727;49.934;8.656;2023-02-17T08:16:02;3.97;;;3.22;;
24559;SDS011;12727;49.934;8.656;2023-02-17T08:18:30;5.28;;;2.95;;
24559;SDS011;12727;49.934;8.656;2023-02-17T08:20:56;4.40;;;3.15;;
24559;SDS011;12727;49.934;8.656;2023-02-17T08:23:25;4.15;;;2.85;;
24559;SDS011;12727;49.934;8.656;2023-02-17T08:25:51;4.10;;;2.78;;
24559;SDS011;12727;49.934;8.656;2023-02-17T08:28:17;3.45;;;2.50;;
24559;SDS011;12727;49.934;8.656;2023-02-17T08:30:42;3.30;;;2.22;;
24559;SDS011;12727;49.934;8.656;2023-02-17T08:33:08;2.85;;;1.90;;
24559;SDS011;12727;49.934;8.656;2023-02-17T08:35:34;3.22;;;2.60;;
24559;SDS011;12727;49.934;8.656;2023-02-17T08:38:00;3.08;;;2.17;;
24559;SDS011;12727;49.934;8.656;2023-02-17T08:40:26;3.55;;;2.83;;
24559;SDS011;12727;49.934;8.656;2023-02-17T08:42:52;3.70;;;2.47;;
24559;SDS011;12727;49.934;8.656;2023-02-17T08:45:21;3.60;;;2.85;;
24559;SDS011;12727;49.934;8.656;2023-02-17T08:47:49;4.35;;;2.85;;
24559;SDS011;12727;49.934;8.656;2023-02-17T08:50:15;5.60;;;3.30;;
24559;SDS011;12727;49.934;8.656;2023-02-17T08:52:44;3.97;;;3.00;;
24559;SDS011;12727;49.934;8.656;2023-02-17T08:55:11;4.13;;;3.00;;
24559;SDS011;12727;49.934;8.656;2023-02-17T08:57:37;3.95;;;3.42;;
24559;SDS011;12727;49.934;8.656;2023-02-17T09:00:04;4.07;;;2.92;;
24559;SDS011;12727;49.934;8.656;2023-02-17T09:02:33;7.43;;;3.40;;
24559;SDS011;12727;49.934;8.656;2023-02-17T09:05:03;5.50;;;3.67;;
24559;SDS011;12727;49.934;8.656;2023-02-17T09:07:30;4.40;;;3.63;;
24559;SDS011;12727;49.934;8.656;2023-02-17T09:09:55;5.03;;;3.92;;
24559;SDS011;12727;49.934;8.656;2023-02-17T09:12:24;6.03;;;4.07;;
24559;SDS011;12727;49.934;8.656;2023-02-17T09:14:50;6.05;;;4.60;;
24559;SDS011;12727;49.934;8.656;2023-02-17T09:17:16;7.07;;;4.70;;
24559;SDS011;12727;49.934;8.656;2023-02-17T09:19:44;5.20;;;4.05;;
24559;SDS011;12727;49.934;8.656;2023-02-17T09:22:13;6.60;;;4.18;;
24559;SDS011;12727;49.934;8.656;2023-02-17T09:24:41;5.43;;;4.10;;
24559;SDS011;12727;49.934;8.656;2023-02-17T09:27:16;6.25;;;4.32;;
24559;SDS011;12727;49.934;8.656;2023-02-17T09:29:41;8.90;;;5.05;;
24559;SDS011;12727;49.934;8.656;2023-02-17T09:32:07;7.18;;;4.82;;
24559;SDS011;12727;49.934;8.656;2023-02-17T09:34:37;7.22;;;4.78;;
24559;SDS011;12727;49.934;8.656;2023-02-17T09:37:03;6.55;;;5.30;;
24559;SDS011;12727;49.934;8.656;2023-02-17T09:39:34;7.10;;;4.88;;
24559;SDS011;12727;49.934;8.656;2023-02-17T09:42:00;6.80;;;4.15;;
24559;SDS011;12727;49.934;8.656;2023-02-17T09:44:30;8.15;;;4.97;;
24559;SDS011;12727;49.934;8.656;2023-02-17T09:47:10;7.13;;;5.22;;
24559;SDS011;12727;49.934;8.656;2023-02-17T09:49:45;7.75;;;5.10;;
24559;SDS011;12727;49.934;8.656;2023-02-17T09:52:17;6.82;;;4.93;;
24559;SDS011;12727;49.934;8.656;2023-02-17T09:57:27;7.88;;;5.63;;
24559;SDS011;12727;49.934;8.656;2023-02-17T10:00:00;7.57;;;5.57;;
24559;SDS011;12727;49.934;8.656;2023-02-17T10:02:43;6.90;;;4.95;;
24559;SDS011;12727;49.934;8.656;2023-02-17T10:05:18;8.63;;;6.10;;
24559;SDS011;12727;49.934;8.656;2023-02-17T10:08:10;9.00;;;5.38;;
24559;SDS011;12727;49.934;8.656;2023-02-17T10:11:01;7.05;;;5.20;;
24559;SDS011;12727;49.934;8.656;2023-02-17T10:13:33;7.28;;;5.38;;
24559;SDS011;12727;49.934;8.656;2023-02-17T10:16:06;6.97;;;5.32;;
24559;SDS011;12727;49.934;8.656;2023-02-17T10:18:51;7.93;;;4.63;;
24559;SDS011;12727;49.934;8.656;2023-02-17T10:21:31;8.38;;;5.88;;
24559;SDS011;12727;49.934;8.656;2023-02-17T10:24:02;8.15;;;5.53;;
24559;SDS011;12727;49.934;8.656;2023-02-17T10:29:50;7.95;;;5.20;;
24559;SDS011;12727;49.934;8.656;2023-02-17T10:32:26;7.38;;;5.35;;
24559;SDS011;12727;49.934;8.656;2023-02-17T10:35:12;8.13;;;5.80;;
24559;SDS011;12727;49.934;8.656;2023-02-17T10:37:41;7.70;;;5.22;;
24559;SDS011;12727;49.934;8.656;2023-02-17T10:40:20;8.13;;;5.30;;
24559;SDS011;12727;49.934;8.656;2023-02-17T10:43:20;7.82;;;5.20;;
24559;SDS011;12727;49.934;8.656;2023-02-17T10:45:49;7.53;;;4.50;;
24559;SDS011;12727;49.934;8.656;2023-02-17T10:51:21;9.70;;;5.22;;
24559;SDS011;12727;49.934;8.656;2023-02-17T10:53:54;7.47;;;4.65;;
24559;SDS011;12727;49.934;8.656;2023-02-17T10:57:02;7.80;;;4.68;;
24559;SDS011;12727;49.934;8.656;2023-02-17T10:59:34;5.82;;;3.90;;
24559;SDS011;12727;49.934;8.656;2023-02-17T11:02:47;7.10;;;5.03;;
24559;SDS011;12727;49.934;8.656;2023-02-17T11:05:40;8.13;;;4.68;;
24559;SDS011;12727;49.934;8.656;2023-02-17T11:08:07;8.90;;;4.68;;
24559;SDS011;12727;49.934;8.656;2023-02-17T11:11:04;5.90;;;4.15;;
24559;SDS011;12727;49.934;8.656;2023-02-17T11:16:21;6.15;;;4.00;;
24559;SDS011;12727;49.934;8.656;2023-02-17T11:19:33;4.43;;;3.25;;
24559;SDS011;12727;49.934;8.656;2023-02-17T11:22:03;5.82;;;3.15;;
24559;SDS011;12727;49.934;8.656;2023-02-17T11:24:56;4.40;;;3.13;;
24559;SDS011;12727;49.934;8.656;2023-02-17T11:29:49;3.97;;;3.10;;
24559;SDS011;12727;49.934;8.656;2023-02-17T11:32:30;5.32;;;3.13;;
24559;SDS011;12727;49.934;8.656;2023-02-17T11:38:20;4.85;;;3.13;;
24559;SDS011;12727;49.934;8.656;2023-02-17T11:41:03;3.55;;;2.70;;
24559;SDS011;12727;49.934;8.656;2023-02-17T11:43:57;4.00;;;2.75;;
24559;SDS011;12727;49.934;8.656;2023-02-17T11:54:31;3.38;;;2.50;;
24559;SDS011;12727;49.934;8.656;2023-02-17T12:00:21;5.13;;;3.35;;
24559;SDS011;12727;49.934;8.656;2023-02-17T12:03:23;3.85;;;2.92;;
24559;SDS011;12727;49.934;8.656;2023-02-17T12:09:04;6.68;;;3.25;;
24559;SDS011;12727;49.934;8.656;2023-02-17T12:12:02;7.13;;;4.28;;
24559;SDS011;12727;49.934;8.656;2023-02-17T12:14:52;6.05;;;3.80;;
24559;SDS011;12727;49.934;8.656;2023-02-17T12:38:11;8.05;;;5.57;;
24559;SDS011;12727;49.934;8.656;2023-02-17T12:40:58;8.10;;;5.32;;
24559;SDS011;12727;49.934;8.656;2023-02-17T12:44:13;6.53;;;4.55;;
24559;SDS011;12727;49.934;8.656;2023-02-17T12:46:44;5.63;;;3.80;;
24559;SDS011;12727;49.934;8.656;2023-02-17T12:49:19;3.60;;;2.00;;
24559;SDS011;12727;49.934;8.656;2023-02-17T12:57:16;4.00;;;2.97;;
24559;SDS011;12727;49.934;8.656;2023-02-17T12:59:44;3.85;;;2.10;;
24559;SDS011;12727;49.934;8.656;2023-02-17T13:02:32;3.92;;;2.70;;
24559;SDS011;12727;49.934;8.656;2023-02-17T13:10:01;3.83;;;3.17;;
24559;SDS011;12727;49.934;8.656;2023-02-17T13:14:56;2.65;;;2.17;;
24559;SDS011;12727;49.934;8.656;2023-02-17T13:20:24;1.38;;;0.85;;
24559;SDS011;12727;49.934;8.656;2023-02-17T13:23:31;2.22;;;1.50;;
24559;SDS011;12727;49.934;8.656;2023-02-17T13:26:12;2.15;;;1.70;;
24559;SDS011;12727;49.934;8.656;2023-02-17T13:28:49;2.58;;;1.58;;
24559;SDS011;12727;49.934;8.656;2023-02-17T13:31:42;2.28;;;1.60;;
24559;SDS011;12727;49.934;8.656;2023-02-17T13:39:48;2.30;;;1.90;;
24559;SDS011;12727;49.934;8.656;2023-02-17T13:43:15;3.13;;;1.90;;
24559;SDS011;12727;49.934;8.656;2023-02-17T13:47:48;4.07;;;2.40;;
24559;SDS011;12727;49.934;8.656;2023-02-17T13:50:32;3.00;;;2.20;;
24559;SDS011;12727;49.934;8.656;2023-02-17T13:53:00;3.40;;;2.20;;
24559;SDS011;12727;49.934;8.656;2023-02-17T13:55:27;3.67;;;2.22;;
24559;SDS011;12727;49.934;8.656;2023-02-17T13:57:54;3.42;;;2.50;;
24559;SDS011;12727;49.934;8.656;2023-02-17T14:00:23;3.70;;;2.15;;
24559;SDS011;12727;49.934;8.656;2023-02-17T14:02:52;3.80;;;2.58;;
24559;SDS011;12727;49.934;8.656;2023-02-17T14:07:58;3.72;;;2.80;;
24559;SDS011;12727;49.934;8.656;2023-02-17T14:10:28;3.78;;;2.83;;
24559;SDS011;12727;49.934;8.656;2023-02-17T14:12:54;4.03;;;2.83;;
24559;SDS011;12727;49.934;8.656;2023-02-17T14:15:22;4.65;;;2.90;;
24559;SDS011;12727;49.934;8.656;2023-02-17T14:17:50;3.42;;;2.45;;
24559;SDS011;12727;49.934;8.656;2023-02-17T14:23:10;3.28;;;2.45;;
24559;SDS011;12727;49.934;8.656;2023-02-17T14:25:38;3.67;;;2.63;;
24559;SDS011;12727;49.934;8.656;2023-02-17T14:28:22;1.85;;;1.52;;
24559;SDS011;12727;49.934;8.656;2023-02-17T14:38:27;3.00;;;2.70;;
24559;SDS011;12727;49.934;8.656;2023-02-17T14:40:56;2.90;;;2.25;;
24559;SDS011;12727;49.934;8.656;2023-02-17T14:43:22;3.28;;;2.35;;
24559;SDS011;12727;49.934;8.656;2023-02-17T14:45:49;4.13;;;2.47;;
24559;SDS011;12727;49.934;8.656;2023-02-17T14:48:15;2.75;;;2.22;;
24559;SDS011;12727;49.934;8.656;2023-02-17T14:50:40;4.55;;;2.25;;
24559;SDS011;12727;49.934;8.656;2023-02-17T14:53:17;3.10;;;2.45;;
24559;SDS011;12727;49.934;8.656;2023-02-17T14:55:54;3.22;;;2.70;;
24559;SDS011;12727;49.934;8.656;2023-02-17T14:58:26;3.83;;;3.00;;
24559;SDS011;12727;49.934;8.656;2023-02-17T15:00:53;3.30;;;2.70;;
24559;SDS011;12727;49.934;8.656;2023-02-17T15:03:19;4.55;;;3.08;;
24559;SDS011;12727;49.934;8.656;2023-02-17T15:05:44;3.67;;;2.88;;
24559;SDS011;12727;49.934;8.656;2023-02-17T15:08:14;3.53;;;2.97;;
24559;SDS011;12727;49.934;8.656;2023-02-17T15:10:47;4.32;;;3.35;;
24559;SDS011;12727;49.934;8.656;2023-02-17T15:13:15;5.05;;;4.03;;
24559;SDS011;12727;49.934;8.656;2023-02-17T15:15:44;5.30;;;3.60;;
24559;SDS011;12727;49.934;8.656;2023-02-17T15:18:18;5.38;;;3.47;;
24559;SDS011;12727;49.934;8.656;2023-02-17T15:20:46;4.70;;;3.35;;
24559;SDS011;12727;49.934;8.656;2023-02-17T15:23:22;6.30;;;4.05;;
24559;SDS011;12727;49.934;8.656;2023-02-17T15:25:50;5.88;;;3.97;;
24559;SDS011;12727;49.934;8.656;2023-02-17T15:28:18;6.05;;;4.45;;
24559;SDS011;12727;49.934;8.656;2023-02-17T15:30:49;6.28;;;3.22;;
24559;SDS011;12727;49.934;8.656;2023-02-17T15:33:17;6.35;;;4.53;;
24559;SDS011;12727;49.934;8.656;2023-02-17T15:35:45;7.72;;;4.63;;
24559;SDS011;12727;49.934;8.656;2023-02-17T15:38:12;5.60;;;4.22;;
24559;SDS011;12727;49.934;8.656;2023-02-17T15:40:38;6.15;;;4.15;;
24559;SDS011;12727;49.934;8.656;2023-02-17T15:43:10;4.95;;;3.35;;
24559;SDS011;12727;49.934;8.656;2023-02-17T15:45:41;6.70;;;4.13;;
24559;SDS011;12727;49.934;8.656;2023-02-17T15:48:11;6.68;;;4.55;;
24559;SDS011;12727;49.934;8.656;2023-02-17T15:50:44;7.57;;;4.88;;
24559;SDS011;12727;49.934;8.656;2023-02-17T15:53:10;7.15;;;4.72;;
24559;SDS011;12727;49.934;8.656;2023-02-17T15:55:35;5.68;;;4.43;;
24559;SDS011;12727;49.934;8.656;2023-02-17T15:58:02;6.10;;;4.10;;
24559;SDS011;12727;49.934;8.656;2023-02-17T16:00:31;6.45;;;4.60;;
24559;SDS011;12727;49.934;8.656;2023-02-17T16:02:59;6.38;;;4.32;;
24559;SDS011;12727;49.934;8.656;2023-02-17T16:05:25;5.53;;;3.45;;
24559;SDS011;12727;49.934;8.656;2023-02-17T16:07:52;5.78;;;4.10;;
24559;SDS011;12727;49.934;8.656;2023-02-17T16:10:20;6.18;;;4.70;;
24559;SDS011;12727;49.934;8.656;2023-02-17T16:12:47;5.97;;;4.25;;
24559;SDS011;12727;49.934;8.656;2023-02-17T16:15:15;5.55;;;3.95;;
24559;SDS011;12727;49.934;8.656;2023-02-17T16:17:43;6.60;;;4.50;;
24559;SDS011;12727;49.934;8.656;2023-02-17T16:20:19;5.63;;;4.50;;
24559;SDS011;12727;49.934;8.656;2023-02-17T16:22:48;5.80;;;4.60;;
24559;SDS011;12727;49.934;8.656;2023-02-17T16:25:15;6.65;;;4.53;;
24559;SDS011;12727;49.934;8.656;2023-02-17T16:27:47;5.10;;;3.55;;
24559;SDS011;12727;49.934;8.656;2023-02-17T16:32:59;7.35;;;4.57;;
24559;SDS011;12727;49.934;8.656;2023-02-17T16:35:27;5.40;;;4.30;;
24559;SDS011;12727;49.934;8.656;2023-02-17T16:37:56;5.53;;;4.47;;
24559;SDS011;12727;49.934;8.656;2023-02-17T16:40:27;6.20;;;4.55;;
24559;SDS011;12727;49.934;8.656;2023-02-17T16:42:54;4.82;;;3.95;;
24559;SDS011;12727;49.934;8.656;2023-02-17T16:45:21;5.15;;;4.30;;
24559;SDS011;12727;49.934;8.656;2023-02-17T16:47:49;4.13;;;2.92;;
24559;SDS011;12727;49.934;8.656;2023-02-17T16:50:17;5.95;;;4.55;;
24559;SDS011;12727;49.934;8.656;2023-02-17T16:52:51;5.78;;;3.53;;